createdAt,value
2018-01-26T00:02:11.862Z,101802.57
2018-01-26T00:04:41.371Z,101801.82
2018-01-26T00:07:11.345Z,101803.33
2018-01-26T00:09:41.307Z,101799.25
2018-01-26T00:12:10.772Z,101805.36
2018-01-26T00:14:40.105Z,101809.56
2018-01-26T00:17:10.525Z,101813.80
2018-01-26T00:19:39.758Z,101817.89
2018-01-26T00:22:09.192Z,101821.48
2018-01-26T00:24:38.429Z,101824.17
2018-01-26T00:27:07.670Z,101824.74
2018-01-26T00:29:36.889Z,101824.37
2018-01-26T00:32:06.114Z,101823.52
2018-01-26T00:34:35.359Z,101834.30
2018-01-26T00:37:04.596Z,101840.16
2018-01-26T00:39:33.861Z,101841.61
2018-01-26T00:42:03.083Z,101848.43
2018-01-26T00:44:32.319Z,101841.66
2018-01-26T00:47:01.543Z,101850.73
2018-01-26T00:49:30.874Z,101848.43
2018-01-26T00:52:00.069Z,101853.62
2018-01-26T00:54:29.358Z,101858.39
2018-01-26T00:56:58.623Z,101861.89
2018-01-26T00:59:27.868Z,101866.15
2018-01-26T01:01:57.188Z,101869.94
2018-01-26T01:04:26.484Z,101860.17
2018-01-26T01:06:56.529Z,101862.98
2018-01-26T01:09:25.846Z,101865.23
2018-01-26T01:11:56.002Z,101868.41
2018-01-26T01:14:25.282Z,101874.83
2018-01-26T01:16:55.185Z,101881.96
2018-01-26T01:19:25.315Z,101884.08
2018-01-26T01:21:55.155Z,101889.16
2018-01-26T01:24:24.978Z,101892.06
2018-01-26T01:29:27.673Z,101899.59
2018-01-26T01:31:57.847Z,101892.09
2018-01-26T01:34:27.068Z,101905.55
2018-01-26T01:36:56.307Z,101905.30
2018-01-26T01:39:25.580Z,101904.97
2018-01-26T01:41:54.791Z,101918.88
2018-01-26T01:44:23.997Z,101926.59
2018-01-26T01:46:53.292Z,101931.42
2018-01-26T01:49:22.547Z,101938.37
2018-01-26T01:51:51.989Z,101942.31
2018-01-26T01:54:21.249Z,101941.06
2018-01-26T01:56:50.500Z,101948.58
2018-01-26T01:59:19.781Z,101944.98
2018-01-26T02:01:49.043Z,101944.68
2018-01-26T02:04:18.304Z,101946.27
2018-01-26T02:06:47.583Z,101945.20
2018-01-26T02:09:18.313Z,101939.20
2018-01-26T02:11:47.569Z,101944.56
2018-01-26T02:14:16.831Z,101939.13
2018-01-26T02:16:47.154Z,101940.42
2018-01-26T02:19:16.448Z,101942.37
2018-01-26T02:21:45.689Z,101936.73
2018-01-26T02:24:15.964Z,101943.14
2018-01-26T02:26:45.262Z,101950.70
2018-01-26T02:29:14.510Z,101949.92
2018-01-26T02:31:43.787Z,101958.01
2018-01-26T02:34:13.022Z,101959.02
2018-01-26T02:36:42.277Z,101964.64
2018-01-26T02:39:14.125Z,101964.06
2018-01-26T02:41:44.338Z,101959.78
2018-01-26T02:49:00.486Z,101969.26
2018-01-26T02:51:30.787Z,101970.34
2018-01-26T02:54:01.088Z,101975.53
2018-01-26T02:56:31.349Z,101974.83
2018-01-26T02:59:01.675Z,101971.47
2018-01-26T03:01:31.973Z,101964.64
2018-01-26T03:04:03.081Z,101973.22
2018-01-26T03:06:33.856Z,101963.11
2018-01-26T03:09:05.438Z,101970.77
2018-01-26T03:11:35.726Z,101969.81
2018-01-26T03:14:06.021Z,101980.11
2018-01-26T03:16:36.274Z,101979.97
2018-01-26T03:19:06.544Z,101983.94
2018-01-26T03:21:36.814Z,101979.44
2018-01-26T03:24:07.108Z,101981.74
2018-01-26T03:26:37.365Z,101982.02
2018-01-26T03:29:07.623Z,101990.50
2018-01-26T03:31:37.912Z,101992.47
2018-01-26T03:34:08.200Z,102000.52
2018-01-26T03:36:38.961Z,101996.24
2018-01-26T03:39:09.272Z,102001.98
2018-01-26T03:41:39.524Z,102015.73
2018-01-26T03:44:09.835Z,102006.78
2018-01-26T03:46:40.154Z,102011.72
2018-01-26T03:49:10.388Z,102009.55
2018-01-26T03:51:40.662Z,102015.21
2018-01-26T03:54:10.954Z,102007.55
2018-01-26T03:56:41.258Z,102003.80
2018-01-26T03:59:11.528Z,102006.73
2018-01-26T04:01:41.851Z,102011.67
2018-01-26T04:04:12.141Z,102012.15
2018-01-26T04:06:42.417Z,102016.78
2018-01-26T04:09:13.581Z,102016.02
2018-01-26T04:11:43.905Z,102024.98
2018-01-26T04:14:14.164Z,102029.05
2018-01-26T04:16:44.494Z,102028.57
2018-01-26T04:19:14.840Z,102017.54
2018-01-26T04:21:45.171Z,102030.60
2018-01-26T04:24:15.459Z,102031.18
2018-01-26T04:26:45.729Z,102035.45
2018-01-26T04:29:15.996Z,102037.61
2018-01-26T04:31:47.164Z,102039.75
2018-01-26T04:34:17.420Z,102041.48
2018-01-26T04:36:47.681Z,102044.97
2018-01-26T04:39:17.937Z,102049.00
2018-01-26T04:41:48.395Z,102044.00
2018-01-26T04:44:18.756Z,102048.25
2018-01-26T04:46:49.031Z,102050.30
2018-01-26T04:49:19.307Z,102051.95
2018-01-26T04:51:49.549Z,102063.21
2018-01-26T04:54:19.848Z,102067.42
2018-01-26T04:56:50.094Z,102078.98
2018-01-26T04:59:20.458Z,102094.78
2018-01-26T05:09:13.099Z,102110.36
2018-01-26T05:11:43.419Z,102117.77
2018-01-26T05:14:14.667Z,102119.30
2018-01-26T05:16:44.997Z,102122.54
2018-01-26T05:19:15.294Z,102126.32
2018-01-26T05:21:45.595Z,102125.45
2018-01-26T05:24:15.958Z,102128.62
2018-01-26T05:26:46.221Z,102131.78
2018-01-26T05:29:16.574Z,102130.39
2018-01-26T05:31:46.849Z,102130.67
2018-01-26T05:34:17.117Z,102133.52
2018-01-26T05:36:47.389Z,102137.59
2018-01-26T05:39:17.813Z,102138.35
2018-01-26T05:41:48.140Z,102137.34
2018-01-26T05:44:18.580Z,102136.44
2018-01-26T05:46:48.878Z,102141.99
2018-01-26T05:57:10.448Z,102173.32
2018-01-26T05:59:40.718Z,102182.33
2018-01-26T06:02:11.033Z,102184.80
2018-01-26T06:04:41.374Z,102185.74
2018-01-26T06:07:11.701Z,102191.00
2018-01-26T06:09:42.014Z,102181.06
2018-01-26T06:12:13.013Z,102183.45
2018-01-26T06:14:43.330Z,102189.50
2018-01-26T06:17:13.757Z,102195.55
2018-01-26T06:19:44.078Z,102192.73
2018-01-26T06:22:14.470Z,102192.13
2018-01-26T06:24:44.812Z,102194.52
2018-01-26T06:27:15.218Z,102203.56
2018-01-26T06:29:45.553Z,102200.67
2018-01-26T06:32:15.930Z,102208.11
2018-01-26T06:34:46.387Z,102207.76
2018-01-26T06:37:16.638Z,102209.28
2018-01-26T06:39:47.147Z,102209.33
2018-01-26T06:42:17.521Z,102213.23
2018-01-26T06:44:47.861Z,102206.98
2018-01-26T06:47:18.202Z,102210.61
2018-01-26T06:49:48.500Z,102219.94
2018-01-26T06:52:18.802Z,102229.46
2018-01-26T06:54:49.991Z,102232.70
2018-01-26T06:57:21.011Z,102228.88
2018-01-26T06:59:51.363Z,102226.14
2018-01-26T07:02:21.673Z,102231.33
2018-01-26T07:04:51.968Z,102240.00
2018-01-26T07:07:22.328Z,102236.34
2018-01-26T07:09:52.713Z,102242.34
2018-01-26T07:12:23.143Z,102245.39
2018-01-26T07:14:53.476Z,102255.68
2018-01-26T07:17:23.872Z,102260.16
2018-01-26T07:19:54.157Z,102258.36
2018-01-26T07:22:24.473Z,102256.70
2018-01-26T07:24:54.766Z,102253.56
2018-01-26T07:27:25.102Z,102261.08
2018-01-26T07:29:55.457Z,102257.61
2018-01-26T07:32:25.788Z,102261.63
2018-01-26T07:34:56.089Z,102256.25
2018-01-26T07:37:26.413Z,102256.22
2018-01-26T07:39:56.700Z,102254.13
2018-01-26T07:42:27.037Z,102261.88
2018-01-26T07:44:57.318Z,102250.75
2018-01-26T07:47:27.630Z,102256.70
2018-01-26T07:49:58.650Z,102260.02
2018-01-26T07:52:29.018Z,102256.50
2018-01-26T07:54:59.392Z,102256.05
2018-01-26T07:57:29.705Z,102262.93
2018-01-26T08:00:00.118Z,102262.89
2018-01-26T08:02:30.525Z,102266.80
2018-01-26T08:05:00.817Z,102274.72
2018-01-26T08:07:31.202Z,102273.48
2018-01-26T08:10:01.485Z,102262.52
2018-01-26T08:12:32.628Z,102265.69
2018-01-26T08:15:02.889Z,102269.31
2018-01-26T08:17:33.212Z,102265.98
2018-01-26T08:20:03.497Z,102261.19
2018-01-26T08:22:33.801Z,102270.14
2018-01-26T08:25:04.100Z,102276.31
2018-01-26T08:27:34.398Z,102278.73
2018-01-26T08:30:04.668Z,102286.20
2018-01-26T08:32:34.943Z,102282.09
2018-01-26T08:35:05.293Z,102277.25
2018-01-26T08:37:35.538Z,102279.72
2018-01-26T08:40:05.789Z,102282.94
2018-01-26T08:42:36.060Z,102280.42
2018-01-26T08:45:06.530Z,102285.39
2018-01-26T08:47:36.793Z,102289.12
2018-01-26T08:50:07.085Z,102279.19
2018-01-26T08:52:37.369Z,102282.55
2018-01-26T08:55:13.017Z,102284.52
2018-01-26T08:57:43.364Z,102284.52
2018-01-26T09:00:13.665Z,102285.03
2018-01-26T09:02:44.065Z,102292.95
2018-01-26T09:05:14.394Z,102289.36
2018-01-26T09:07:44.736Z,102283.73
2018-01-26T09:10:15.080Z,102291.61
2018-01-26T09:12:45.429Z,102294.95
2018-01-26T09:15:16.599Z,102303.13
2018-01-26T09:17:47.925Z,102301.37
2018-01-26T09:20:19.500Z,102306.53
2018-01-26T09:22:50.820Z,102307.05
2018-01-26T09:25:21.968Z,102314.41
2018-01-26T09:27:53.065Z,102316.19
2018-01-26T09:30:23.942Z,102319.64
2018-01-26T09:32:54.921Z,102321.80
2018-01-26T09:35:25.904Z,102317.13
2018-01-26T09:37:57.464Z,102320.16
2018-01-26T09:40:28.784Z,102322.28
2018-01-26T09:42:59.570Z,102323.08
2018-01-26T09:45:31.743Z,102327.03
2018-01-26T09:48:03.544Z,102323.94
2018-01-26T09:50:35.220Z,102326.82
2018-01-26T09:53:06.640Z,102329.01
2018-01-26T09:55:38.173Z,102325.41
2018-01-26T09:58:10.053Z,102326.75
2018-01-26T10:00:41.656Z,102330.22
2018-01-26T10:03:13.584Z,102324.09
2018-01-26T10:05:45.162Z,102326.04
2018-01-26T10:08:17.179Z,102335.00
2018-01-26T10:10:48.668Z,102328.11
2018-01-26T10:13:20.507Z,102329.03
2018-01-26T10:15:52.504Z,102333.05
2018-01-26T10:18:23.551Z,102327.29
2018-01-26T10:20:55.152Z,102328.11
2018-01-26T10:23:26.210Z,102334.63
2018-01-26T10:25:58.054Z,102334.04
2018-01-26T10:28:28.938Z,102340.45
2018-01-26T10:30:59.913Z,102339.93
2018-01-26T10:33:31.208Z,102340.27
2018-01-26T10:36:02.584Z,102348.08
2018-01-26T10:38:33.876Z,102352.11
2018-01-26T10:41:04.816Z,102343.13
2018-01-26T10:43:35.742Z,102349.55
2018-01-26T10:46:06.776Z,102341.55
2018-01-26T10:48:38.094Z,102348.34
2018-01-26T10:51:09.023Z,102346.78
2018-01-26T10:53:40.000Z,102347.95
2018-01-26T10:56:11.146Z,102348.99
2018-01-26T10:58:42.080Z,102343.28
2018-01-26T11:01:12.986Z,102345.44
2018-01-26T11:03:44.169Z,102335.69
2018-01-26T11:06:15.482Z,102336.70
2018-01-26T11:08:46.557Z,102338.72
2018-01-26T11:11:17.628Z,102337.34
2018-01-26T11:13:48.713Z,102344.50
2018-01-26T11:16:20.124Z,102348.95
2018-01-26T11:18:51.433Z,102341.31
2018-01-26T11:21:23.029Z,102337.41
2018-01-26T11:23:54.103Z,102342.42
2018-01-26T11:26:25.417Z,102338.77
2018-01-26T11:28:57.040Z,102331.33
2018-01-26T11:31:28.384Z,102332.16
2018-01-26T11:33:59.238Z,102333.31
2018-01-26T11:36:31.293Z,102341.63
2018-01-26T11:39:03.222Z,102337.14
2018-01-26T11:41:34.994Z,102338.08
2018-01-26T11:44:06.173Z,102337.59
2018-01-26T11:46:37.346Z,102338.63
2018-01-26T11:49:09.049Z,102347.56
2018-01-26T11:51:40.197Z,102344.64
2018-01-26T11:54:11.751Z,102348.50
2018-01-26T11:56:43.509Z,102353.44
2018-01-26T11:59:14.810Z,102356.75
2018-01-26T12:01:45.771Z,102356.62
2018-01-26T12:04:17.544Z,102362.19
2018-01-26T12:06:49.066Z,102364.22
2018-01-26T12:09:20.007Z,102361.33
2018-01-26T12:11:51.194Z,102367.31
2018-01-26T12:14:22.504Z,102362.94
2018-01-26T12:16:53.639Z,102366.98
2018-01-26T12:19:25.208Z,102369.10
2018-01-26T12:21:56.244Z,102370.52
2018-01-26T12:24:27.313Z,102381.69
2018-01-26T12:26:58.075Z,102372.40
2018-01-26T12:29:29.183Z,102375.08
2018-01-26T12:32:00.087Z,102378.44
2018-01-26T12:34:31.237Z,102383.20
2018-01-26T12:37:02.572Z,102390.41
2018-01-26T12:39:33.699Z,102392.66
2018-01-26T12:42:04.700Z,102391.45
2018-01-26T12:44:36.237Z,102394.55
2018-01-26T12:47:07.468Z,102400.45
2018-01-26T12:49:38.950Z,102404.06
2018-01-26T12:52:10.095Z,102400.05
2018-01-26T12:54:41.149Z,102402.83
2018-01-26T12:57:12.396Z,102414.66
2018-01-26T12:59:43.483Z,102405.68
2018-01-26T13:02:14.897Z,102407.98
2018-01-26T13:04:46.185Z,102410.28
2018-01-26T13:07:17.542Z,102405.77
2018-01-26T13:09:49.090Z,102405.41
2018-01-26T13:12:20.457Z,102408.51
2018-01-26T13:14:51.346Z,102405.16
2018-01-26T13:17:22.729Z,102416.05
2018-01-26T13:19:54.088Z,102415.58
2018-01-26T13:22:25.210Z,102418.91
2018-01-26T13:24:56.361Z,102420.63
2018-01-26T13:27:27.301Z,102416.91
2018-01-26T13:29:58.991Z,102422.70
2018-01-26T13:32:29.611Z,102426.95
2018-01-26T13:35:00.762Z,102433.52
2018-01-26T13:37:32.006Z,102439.15
2018-01-26T13:40:02.967Z,102434.41
2018-01-26T13:42:33.987Z,102438.02
2018-01-26T13:45:05.134Z,102444.68
2018-01-26T13:47:36.273Z,102442.09
2018-01-26T13:50:07.397Z,102447.59
2018-01-26T13:52:38.328Z,102448.66
2018-01-26T13:55:09.710Z,102455.12
2018-01-26T13:57:41.290Z,102454.95
2018-01-26T14:00:12.396Z,102457.41
2018-01-26T14:02:43.515Z,102466.55
2018-01-26T14:05:14.590Z,102461.97
2018-01-26T14:07:45.836Z,102463.69
2018-01-26T14:10:17.868Z,102465.30
2018-01-26T14:12:49.140Z,102466.32
2018-01-26T14:15:20.493Z,102464.33
2018-01-26T14:17:52.037Z,102470.51
2018-01-26T14:20:23.620Z,102471.32
2018-01-26T14:22:55.127Z,102477.53
2018-01-26T14:25:26.090Z,102482.55
2018-01-26T14:27:57.429Z,102479.92
2018-01-26T14:30:28.373Z,102481.21
2018-01-26T14:32:59.316Z,102483.58
2018-01-26T14:35:30.691Z,102488.07
2018-01-26T14:38:01.753Z,102491.19
2018-01-26T14:40:32.742Z,102492.95
2018-01-26T14:43:03.693Z,102506.81
2018-01-26T14:45:34.960Z,102503.59
2018-01-26T14:48:06.000Z,102505.88
2018-01-26T14:50:37.076Z,102506.75
2018-01-26T14:53:08.276Z,102507.63
2018-01-26T14:55:39.637Z,102509.28
2018-01-26T14:58:10.682Z,102513.30
2018-01-26T15:00:41.898Z,102523.30
2018-01-26T15:03:13.269Z,102525.97
2018-01-26T15:05:44.603Z,102541.17
2018-01-26T15:08:15.577Z,102534.33
2018-01-26T15:10:46.609Z,102524.60
2018-01-26T15:13:17.842Z,102528.37
2018-01-26T15:15:48.937Z,102530.84
2018-01-26T15:18:19.483Z,102529.09
2018-01-26T15:20:50.658Z,102534.22
2018-01-26T15:23:21.560Z,102542.13
2018-01-26T15:25:52.302Z,102539.84
2018-01-26T15:28:24.057Z,102541.52
2018-01-26T15:30:55.027Z,102544.66
2018-01-26T15:33:26.369Z,102558.53
2018-01-26T15:35:58.131Z,102553.50
2018-01-26T15:38:29.280Z,102557.55
2018-01-26T15:41:00.631Z,102556.48
2018-01-26T15:43:31.944Z,102555.68
2018-01-26T15:46:03.095Z,102560.74
2018-01-26T15:48:34.233Z,102566.20
2018-01-26T15:51:05.226Z,102567.36
2018-01-26T15:53:36.340Z,102572.63
2018-01-26T15:56:07.461Z,102577.32
2018-01-26T15:58:39.947Z,102574.67
2018-01-26T16:01:10.984Z,102590.62
2018-01-26T16:03:42.133Z,102601.33
2018-01-26T16:06:13.264Z,102599.64
2018-01-26T16:08:44.331Z,102595.87
2018-01-26T16:11:15.537Z,102595.55
2018-01-26T16:13:46.719Z,102592.74
2018-01-26T16:16:17.873Z,102599.34
2018-01-26T16:18:49.026Z,102612.07
2018-01-26T16:21:20.147Z,102613.91
2018-01-26T16:23:51.474Z,102611.96
2018-01-26T16:26:22.597Z,102607.05
2018-01-26T16:28:53.386Z,102608.64
2018-01-26T16:31:24.502Z,102608.80
2018-01-26T16:33:55.395Z,102612.69
2018-01-26T16:36:27.719Z,102616.41
2018-01-26T16:38:58.938Z,102618.87
2018-01-26T16:41:30.724Z,102616.50
2018-01-26T16:44:02.581Z,102614.53
2018-01-26T16:46:33.877Z,102621.68
2018-01-26T16:49:04.956Z,102621.97
2018-01-26T16:51:36.193Z,102624.78
2018-01-26T16:54:07.441Z,102630.19
2018-01-26T16:56:38.483Z,102643.22
2018-01-26T16:59:09.733Z,102641.22
2018-01-26T17:01:41.240Z,102640.73
2018-01-26T17:04:12.663Z,102645.62
2018-01-26T17:06:44.819Z,102644.17
2018-01-26T17:09:15.913Z,102649.81
2018-01-26T17:11:46.840Z,102658.22
2018-01-26T17:14:17.687Z,102665.48
2018-01-26T17:16:49.578Z,102666.47
2018-01-26T17:19:21.399Z,102662.43
2018-01-26T17:21:53.012Z,102676.16
2018-01-26T17:24:25.458Z,102680.05
2018-01-26T17:26:56.412Z,102685.45
2018-01-26T17:29:28.232Z,102682.88
2018-01-26T17:31:59.821Z,102691.42
2018-01-26T17:34:30.857Z,102690.59
2018-01-26T17:37:01.852Z,102696.06
2018-01-26T17:39:33.179Z,102697.56
2018-01-26T17:42:03.506Z,102700.72
2018-01-26T17:44:33.788Z,102692.16
2018-01-26T17:47:04.124Z,102691.41
2018-01-26T17:49:34.371Z,102693.88
2018-01-26T17:52:04.720Z,102697.02
2018-01-26T17:54:34.956Z,102696.58
2018-01-26T17:57:05.208Z,102695.91
2018-01-26T17:59:35.482Z,102696.18
2018-01-26T18:02:06.083Z,102706.31
2018-01-26T18:04:36.456Z,102704.10
2018-01-26T18:07:06.748Z,102711.45
2018-01-26T18:09:37.608Z,102705.55
2018-01-26T18:12:07.865Z,102699.38
2018-01-26T18:14:38.134Z,102704.30
2018-01-26T18:17:08.469Z,102699.73
2018-01-26T18:19:38.758Z,102704.87
2018-01-26T18:22:09.114Z,102703.63
2018-01-26T18:24:39.350Z,102711.42
2018-01-26T18:27:10.491Z,102713.55
2018-01-26T18:29:40.730Z,102708.75
2018-01-26T18:32:10.976Z,102709.81
2018-01-26T18:34:41.394Z,102714.49
2018-01-26T18:37:12.469Z,102708.45
2018-01-26T18:39:42.788Z,102710.00
2018-01-26T18:42:13.138Z,102720.97
2018-01-26T18:44:43.446Z,102723.61
2018-01-26T18:47:14.662Z,102718.37
2018-01-26T18:49:45.145Z,102721.08
2018-01-26T18:52:15.419Z,102724.08
2018-01-26T18:54:45.699Z,102710.09
2018-01-26T18:57:15.990Z,102710.24
2018-01-26T18:59:46.251Z,102714.61
2018-01-26T19:02:17.081Z,102714.75
2018-01-26T19:04:47.901Z,102703.78
2018-01-26T19:07:18.713Z,102704.95
2018-01-26T19:09:49.625Z,102705.10
2018-01-26T19:12:20.460Z,102706.41
2018-01-26T19:14:51.370Z,102699.68
2018-01-26T19:17:22.228Z,102699.50
2018-01-26T19:19:53.330Z,102686.34
2018-01-26T19:22:24.186Z,102697.11
2018-01-26T19:24:55.057Z,102689.25
2018-01-26T19:27:25.964Z,102680.30
2018-01-26T19:29:56.764Z,102669.80
2018-01-26T19:32:27.568Z,102675.52
2018-01-26T19:34:58.363Z,102674.98
2018-01-26T19:37:29.188Z,102668.56
2018-01-26T19:39:59.999Z,102668.56
2018-01-26T19:42:30.945Z,102656.75
2018-01-26T19:45:01.816Z,102660.97
2018-01-26T19:47:32.608Z,102662.00
2018-01-26T19:50:04.267Z,102659.47
2018-01-26T19:52:36.345Z,102660.77
2018-01-26T19:55:08.760Z,102657.59
2018-01-26T19:57:39.817Z,102649.84
2018-01-26T20:00:10.650Z,102640.61
2018-01-26T20:02:41.556Z,102647.72
2018-01-26T20:05:28.061Z,102643.99
2018-01-26T20:16:13.873Z,102610.84
2018-01-26T20:18:44.119Z,102607.41
2018-01-26T20:21:14.510Z,102602.49
2018-01-26T20:23:44.932Z,102599.34
2018-01-26T20:26:15.535Z,102598.82
2018-01-26T20:28:45.921Z,102590.42
2018-01-26T20:31:16.318Z,102589.31
2018-01-26T20:33:46.786Z,102573.89
2018-01-26T20:36:17.037Z,102568.84
2018-01-26T20:38:48.198Z,102566.73
2018-01-26T20:41:18.543Z,102557.08
2018-01-26T20:43:48.796Z,102557.46
2018-01-26T20:46:19.169Z,102562.34
2018-01-26T20:48:49.530Z,102555.26
2018-01-26T20:51:19.930Z,102552.24
2018-01-26T20:53:50.272Z,102544.06
2018-01-26T20:56:20.511Z,102536.80
2018-01-26T20:58:52.062Z,102523.46
2018-01-26T21:01:23.422Z,102519.62
2018-01-26T21:03:54.338Z,102513.65
2018-01-26T21:06:24.758Z,102512.63
2018-01-26T21:08:55.204Z,102507.87
2018-01-26T21:11:25.641Z,102508.13
2018-01-26T21:13:55.899Z,102504.46
2018-01-26T21:16:26.160Z,102510.11
2018-01-26T21:18:57.489Z,102510.08
2018-01-26T21:21:27.861Z,102509.29
2018-01-26T21:23:58.123Z,102512.56
2018-01-26T21:26:28.422Z,102512.27
2018-01-26T21:28:58.783Z,102513.25
2018-01-26T21:31:29.130Z,102515.86
2018-01-26T21:33:59.610Z,102515.51
2018-01-26T21:36:29.984Z,102513.91
2018-01-26T21:39:00.422Z,102509.48
2018-01-26T21:41:30.709Z,102506.95
2018-01-26T21:44:01.047Z,102515.13
2018-01-26T21:46:31.376Z,102507.84
2018-01-26T21:49:01.851Z,102507.33
2018-01-26T21:51:32.121Z,102512.70
2018-01-26T21:54:03.399Z,102507.28
2018-01-26T21:56:33.907Z,102496.52
2018-01-26T21:59:04.231Z,102494.75
2018-01-26T22:01:34.616Z,102500.86
2018-01-26T22:04:04.869Z,102496.77
2018-01-26T22:06:40.081Z,102502.91
2018-01-26T22:09:10.352Z,102511.95
2018-01-26T22:11:40.725Z,102513.23
2018-01-26T22:14:11.113Z,102499.49
2018-01-26T22:16:41.916Z,102492.07
2018-01-26T22:19:12.237Z,102493.13
2018-01-26T22:21:42.516Z,102497.13
2018-01-26T22:24:12.823Z,102494.39
2018-01-26T22:26:43.116Z,102485.73
2018-01-26T22:29:13.467Z,102491.13
2018-01-26T22:31:43.733Z,102490.03
2018-01-26T22:34:13.972Z,102489.78
2018-01-26T22:36:44.421Z,102487.55
2018-01-26T22:39:14.777Z,102488.45
2018-01-26T22:41:45.093Z,102485.05
2018-01-26T22:44:15.350Z,102471.95
2018-01-26T22:46:45.792Z,102477.47
2018-01-26T22:49:16.225Z,102472.19
2018-01-26T22:51:46.538Z,102478.44
2018-01-26T22:54:16.883Z,102471.52
2018-01-26T22:56:47.218Z,102473.97
2018-01-26T22:59:17.514Z,102469.60
2018-01-26T23:01:47.808Z,102470.30
2018-01-26T23:04:18.128Z,102475.09
2018-01-26T23:06:48.404Z,102470.34
2018-01-26T23:09:18.820Z,102467.54
2018-01-26T23:11:49.046Z,102471.20
2018-01-26T23:14:19.864Z,102480.45
2018-01-26T23:16:50.187Z,102477.04
2018-01-26T23:19:20.425Z,102485.84
2018-01-26T23:21:50.739Z,102497.34
2018-01-26T23:24:21.013Z,102501.66
2018-01-26T23:26:51.376Z,102496.78
2018-01-26T23:29:21.706Z,102502.89
2018-01-26T23:31:52.062Z,102502.45
2018-01-26T23:34:22.366Z,102492.51
2018-01-26T23:36:52.675Z,102499.34
2018-01-26T23:39:22.921Z,102496.31
2018-01-26T23:41:53.974Z,102499.62
2018-01-26T23:44:24.254Z,102496.57
2018-01-26T23:46:54.581Z,102495.16
2018-01-26T23:49:24.808Z,102491.52
2018-01-26T23:51:55.301Z,102493.44
2018-01-26T23:54:25.518Z,102498.65
2018-01-26T23:56:55.885Z,102497.20
2018-01-26T23:59:26.148Z,102497.05
